createdAt,value
2018-08-16T00:00:33.714Z,1015.06
2018-08-16T00:01:33.737Z,1015.05
2018-08-16T00:02:33.759Z,1015.04
2018-08-16T00:03:33.784Z,1015.06
2018-08-16T00:04:33.807Z,1015.04
2018-08-16T00:06:33.853Z,1015.06
2018-08-16T00:07:33.878Z,1015.06
2018-08-16T00:08:33.902Z,1015.08
2018-08-16T00:09:33.926Z,1015.04
2018-08-16T00:10:33.948Z,1015.06
2018-08-16T00:11:33.973Z,1015.07
2018-08-16T00:12:33.997Z,1015.11
2018-08-16T00:13:34.021Z,1015.11
2018-08-16T00:14:34.045Z,1015.11
2018-08-16T00:15:34.066Z,1015.14
2018-08-16T00:16:34.090Z,1015.14
2018-08-16T00:17:34.114Z,1015.1
2018-08-16T00:18:34.142Z,1015.09
2018-08-16T00:19:34.165Z,1015.07
2018-08-16T00:20:34.185Z,1015.11
2018-08-16T00:22:34.238Z,1015.07
2018-08-16T00:23:34.255Z,1015.04
2018-08-16T00:24:34.284Z,1015.05
2018-08-16T00:25:34.303Z,1015.06
2018-08-16T00:26:34.326Z,1015.07
2018-08-16T00:27:34.350Z,1015.09
2018-08-16T00:28:34.374Z,1015.08
2018-08-16T00:29:34.399Z,1015.09
2018-08-16T00:30:34.420Z,1015.13
2018-08-16T00:31:34.443Z,1015.09
2018-08-16T00:32:34.468Z,1015.07
2018-08-16T00:33:34.492Z,1015.1
2018-08-16T00:34:34.514Z,1015.13
2018-08-16T00:35:34.542Z,1015.1
2018-08-16T00:36:34.562Z,1015.09
2018-08-16T00:38:34.607Z,1015.12
2018-08-16T00:39:34.631Z,1015.11
2018-08-16T00:40:34.660Z,1015.07
2018-08-16T00:41:34.678Z,1015.12
2018-08-16T00:42:34.701Z,1015.11
2018-08-16T00:43:34.724Z,1015.09
2018-08-16T00:44:34.750Z,1015.1
2018-08-16T00:45:34.772Z,1015.06
2018-08-16T00:46:34.795Z,1015.11
2018-08-16T00:47:34.819Z,1015.08
2018-08-16T00:48:34.842Z,1015.08
2018-08-16T00:49:34.872Z,1015.07
2018-08-16T00:50:34.889Z,1015.05
2018-08-16T00:51:34.913Z,1015.08
2018-08-16T00:52:34.935Z,1015.05
2018-08-16T00:54:34.983Z,1015.07
2018-08-16T00:55:35.007Z,1015.02
2018-08-16T00:56:35.028Z,1015.05
2018-08-16T00:57:35.053Z,1015.05
2018-08-16T00:58:35.077Z,1015.02
2018-08-16T00:59:35.100Z,1015.03
2018-08-16T01:00:35.122Z,1015.03
2018-08-16T01:01:35.147Z,1015.05
2018-08-16T01:02:35.170Z,1014.99
2018-08-16T01:03:35.193Z,1015.01
2018-08-16T01:04:35.215Z,1015
2018-08-16T01:05:35.239Z,1015.02
2018-08-16T01:06:35.262Z,1015.04
2018-08-16T01:07:35.287Z,1015.02
2018-08-16T01:09:35.334Z,1014.99
2018-08-16T01:10:35.355Z,1015.03
2018-08-16T01:11:35.380Z,1015.01
2018-08-16T01:12:35.407Z,1015.02
2018-08-16T01:13:35.462Z,1015
2018-08-16T01:14:35.451Z,1014.97
2018-08-16T01:15:35.477Z,1014.97
2018-08-16T01:16:35.496Z,1014.97
2018-08-16T01:17:35.519Z,1014.95
2018-08-16T01:18:35.543Z,1014.96
2018-08-16T01:19:35.565Z,1014.99
2018-08-16T01:20:35.589Z,1014.92
2018-08-16T01:21:35.611Z,1014.91
2018-08-16T01:22:35.635Z,1014.93
2018-08-16T01:23:35.658Z,1014.94
2018-08-16T01:24:35.682Z,1014.92
2018-08-16T01:25:35.704Z,1014.92
2018-08-16T01:26:35.727Z,1014.92
2018-08-16T01:27:35.751Z,1014.95
2018-08-16T01:28:35.774Z,1014.95
2018-08-16T01:29:35.797Z,1014.93
2018-08-16T01:30:35.821Z,1014.92
2018-08-16T01:31:35.842Z,1014.92
2018-08-16T01:32:35.866Z,1014.94
2018-08-16T01:33:35.889Z,1014.96
2018-08-16T01:34:35.912Z,1014.93
2018-08-16T01:35:35.949Z,1014.93
2018-08-16T01:36:35.958Z,1014.91
2018-08-16T01:37:35.982Z,1014.93
2018-08-16T01:38:36.005Z,1014.91
2018-08-16T01:39:36.027Z,1014.92
2018-08-16T01:41:36.087Z,1014.91
2018-08-16T01:42:36.098Z,1014.92
2018-08-16T01:43:36.120Z,1014.93
2018-08-16T01:44:36.144Z,1014.94
2018-08-16T01:45:36.166Z,1014.91
2018-08-16T01:46:36.190Z,1014.9
2018-08-16T01:47:36.212Z,1014.86
2018-08-16T01:48:36.236Z,1014.92
2018-08-16T01:49:36.260Z,1014.93
2018-08-16T01:50:36.282Z,1014.9
2018-08-16T01:51:36.305Z,1014.93
2018-08-16T01:52:36.330Z,1014.93
2018-08-16T01:53:36.352Z,1014.94
2018-08-16T01:54:36.373Z,1014.91
2018-08-16T01:55:36.398Z,1014.96
2018-08-16T01:57:36.448Z,1014.94
2018-08-16T01:58:36.468Z,1014.91
2018-08-16T01:59:36.490Z,1014.92
2018-08-16T02:00:36.514Z,1014.89
2018-08-16T02:01:36.535Z,1014.92
2018-08-16T02:02:36.559Z,1014.88
2018-08-16T02:03:36.584Z,1014.9
2018-08-16T02:04:36.605Z,1014.86
2018-08-16T02:05:36.632Z,1014.89
2018-08-16T02:06:36.649Z,1014.86
2018-08-16T02:07:36.675Z,1014.87
2018-08-16T02:08:36.700Z,1014.85
2018-08-16T02:09:36.720Z,1014.84
2018-08-16T02:10:36.744Z,1014.84
2018-08-16T02:11:36.767Z,1014.86
2018-08-16T02:13:36.812Z,1014.83
2018-08-16T02:14:36.837Z,1014.86
2018-08-16T02:15:36.859Z,1014.84
2018-08-16T02:16:36.882Z,1014.87
2018-08-16T02:17:36.905Z,1014.88
2018-08-16T02:18:36.927Z,1014.89
2018-08-16T02:19:36.952Z,1014.89
2018-08-16T02:20:36.974Z,1014.89
2018-08-16T02:21:36.998Z,1014.9
2018-08-16T02:22:37.021Z,1014.87
2018-08-16T02:23:37.042Z,1014.91
2018-08-16T02:24:37.068Z,1014.91
2018-08-16T02:25:37.090Z,1014.89
2018-08-16T02:26:37.113Z,1014.88
2018-08-16T02:27:37.137Z,1014.9
2018-08-16T02:29:37.180Z,1014.9
2018-08-16T02:30:37.206Z,1014.94
2018-08-16T02:31:37.227Z,1014.91
2018-08-16T02:32:37.254Z,1014.92
2018-08-16T02:33:37.353Z,1014.91
2018-08-16T02:34:37.295Z,1014.9
2018-08-16T02:35:37.320Z,1014.91
2018-08-16T02:36:37.343Z,1014.92
2018-08-16T02:37:37.366Z,1014.88
2018-08-16T02:38:37.388Z,1014.9
2018-08-16T02:39:37.412Z,1014.89
2018-08-16T02:40:37.434Z,1014.9
2018-08-16T02:41:37.462Z,1014.9
2018-08-16T02:42:37.486Z,1014.87
2018-08-16T02:44:37.526Z,1014.92
2018-08-16T02:45:37.552Z,1014.9
2018-08-16T02:46:37.573Z,1014.89
2018-08-16T02:47:37.596Z,1014.89
2018-08-16T02:48:37.622Z,1014.88
2018-08-16T02:49:37.641Z,1014.88
2018-08-16T02:50:37.664Z,1014.87
2018-08-16T02:51:37.688Z,1014.84
2018-08-16T02:52:37.710Z,1014.9
2018-08-16T02:53:37.733Z,1014.85
2018-08-16T02:54:37.759Z,1014.83
2018-08-16T02:55:37.778Z,1014.85
2018-08-16T02:56:37.802Z,1014.87
2018-08-16T02:57:37.826Z,1014.84
2018-08-16T02:58:37.848Z,1014.86
2018-08-16T02:59:37.871Z,1014.82
2018-08-16T03:00:37.893Z,1014.8
2018-08-16T03:01:37.917Z,1014.8
2018-08-16T03:02:37.941Z,1014.86
2018-08-16T03:03:37.962Z,1014.81
2018-08-16T03:04:37.988Z,1014.82
2018-08-16T03:05:38.009Z,1014.8
2018-08-16T03:06:38.032Z,1014.82
2018-08-16T03:07:38.053Z,1014.83
2018-08-16T03:08:38.077Z,1014.79
2018-08-16T03:09:38.100Z,1014.79
2018-08-16T03:10:38.123Z,1014.75
2018-08-16T03:11:38.145Z,1014.75
2018-08-16T03:12:38.169Z,1014.73
2018-08-16T03:13:38.192Z,1014.75
2018-08-16T03:14:38.313Z,1014.72
2018-08-16T03:16:38.258Z,1014.71
2018-08-16T03:17:38.283Z,1014.76
2018-08-16T03:18:38.305Z,1014.74
2018-08-16T03:19:38.329Z,1014.72
2018-08-16T03:20:38.351Z,1014.73
2018-08-16T03:21:38.374Z,1014.73
2018-08-16T03:22:38.404Z,1014.7
2018-08-16T03:23:38.420Z,1014.73
2018-08-16T03:24:38.443Z,1014.73
2018-08-16T03:25:38.465Z,1014.75
2018-08-16T03:26:38.487Z,1014.76
2018-08-16T03:27:38.511Z,1014.76
2018-08-16T03:28:38.533Z,1014.77
2018-08-16T03:29:38.556Z,1014.75
2018-08-16T03:30:38.584Z,1014.73
2018-08-16T03:32:38.624Z,1014.75
2018-08-16T03:33:38.647Z,1014.79
2018-08-16T03:34:38.669Z,1014.77
2018-08-16T03:35:38.696Z,1014.77
2018-08-16T03:36:38.715Z,1014.79
2018-08-16T03:37:38.737Z,1014.79
2018-08-16T03:38:38.761Z,1014.8
2018-08-16T03:39:38.784Z,1014.79
2018-08-16T03:40:38.806Z,1014.8
2018-08-16T03:41:38.828Z,1014.8
2018-08-16T03:42:38.852Z,1014.82
2018-08-16T03:43:38.875Z,1014.83
2018-08-16T03:44:38.896Z,1014.82
2018-08-16T03:45:38.920Z,1014.82
2018-08-16T03:46:38.943Z,1014.83
2018-08-16T03:48:38.989Z,1014.81
2018-08-16T03:49:39.012Z,1014.81
2018-08-16T03:50:39.035Z,1014.78
2018-08-16T03:51:39.056Z,1014.83
2018-08-16T03:52:39.078Z,1014.83
2018-08-16T03:53:39.102Z,1014.8
2018-08-16T03:54:39.125Z,1014.85
2018-08-16T03:55:39.146Z,1014.84
2018-08-16T03:56:39.170Z,1014.83
2018-08-16T03:57:39.193Z,1014.8
2018-08-16T03:58:39.216Z,1014.84
2018-08-16T03:59:39.238Z,1014.86
2018-08-16T04:00:39.262Z,1014.86
2018-08-16T04:01:39.285Z,1014.85
2018-08-16T04:02:39.309Z,1014.83
2018-08-16T04:04:39.359Z,1014.83
2018-08-16T04:05:39.375Z,1014.85
2018-08-16T04:06:39.397Z,1014.84
2018-08-16T04:07:39.420Z,1014.88
2018-08-16T04:08:39.442Z,1014.91
2018-08-16T04:09:39.466Z,1014.88
2018-08-16T04:10:39.488Z,1014.91
2018-08-16T04:11:39.514Z,1014.91
2018-08-16T04:12:39.533Z,1014.9
2018-08-16T04:13:39.557Z,1014.88
2018-08-16T04:14:39.580Z,1014.89
2018-08-16T04:15:39.602Z,1014.91
2018-08-16T04:16:39.625Z,1014.92
2018-08-16T04:17:39.650Z,1014.88
2018-08-16T04:19:39.694Z,1014.92
2018-08-16T04:20:39.715Z,1014.86
2018-08-16T04:21:39.739Z,1014.93
2018-08-16T04:22:39.763Z,1014.94
2018-08-16T04:23:39.908Z,1014.96
2018-08-16T04:24:39.807Z,1014.98
2018-08-16T04:25:39.830Z,1014.97
2018-08-16T04:26:39.854Z,1014.99
2018-08-16T04:27:39.882Z,1014.95
2018-08-16T04:28:39.897Z,1014.94
2018-08-16T04:29:39.925Z,1014.95
2018-08-16T04:30:39.944Z,1014.95
2018-08-16T04:31:39.965Z,1014.98
2018-08-16T04:32:39.991Z,1015
2018-08-16T04:33:40.013Z,1014.97
2018-08-16T04:34:40.069Z,1014.97
2018-08-16T04:35:40.059Z,1014.98
2018-08-16T04:36:40.083Z,1014.99
2018-08-16T04:37:40.105Z,1014.98
2018-08-16T04:38:40.127Z,1015
2018-08-16T04:39:40.150Z,1014.96
2018-08-16T04:40:40.174Z,1014.96
2018-08-16T04:41:40.358Z,1014.95
2018-08-16T04:42:40.219Z,1014.98
2018-08-16T04:43:40.242Z,1014.98
2018-08-16T04:44:40.265Z,1014.95
2018-08-16T04:45:40.288Z,1014.99
2018-08-16T04:46:40.310Z,1014.94
2018-08-16T04:47:40.334Z,1014.94
2018-08-16T04:48:40.476Z,1014.98
2018-08-16T04:49:40.380Z,1014.94
2018-08-16T04:51:40.426Z,1014.96
2018-08-16T04:52:40.450Z,1015
2018-08-16T04:53:40.471Z,1015.02
2018-08-16T04:54:40.496Z,1015.01
2018-08-16T04:55:40.520Z,1015.08
2018-08-16T04:56:40.543Z,1015.17
2018-08-16T04:57:40.566Z,1015.16
2018-08-16T04:58:40.590Z,1015.19
2018-08-16T04:59:40.614Z,1015.17
2018-08-16T05:00:40.639Z,1015.18
2018-08-16T05:01:40.662Z,1015.16
2018-08-16T05:02:40.687Z,1015.22
2018-08-16T05:03:40.711Z,1015.21
2018-08-16T05:04:40.739Z,1015.25
2018-08-16T05:05:40.765Z,1015.25
2018-08-16T05:07:40.812Z,1015.31
2018-08-16T05:08:40.836Z,1015.31
2018-08-16T05:09:40.863Z,1015.37
2018-08-16T05:10:40.890Z,1015.4
2018-08-16T05:11:40.914Z,1015.46
2018-08-16T05:12:40.940Z,1015.46
2018-08-16T05:13:40.969Z,1015.49
2018-08-16T05:14:40.995Z,1015.46
2018-08-16T05:15:41.024Z,1015.5
2018-08-16T05:16:41.051Z,1015.53
2018-08-16T05:17:41.076Z,1015.54
2018-08-16T05:18:41.104Z,1015.54
2018-08-16T05:19:41.130Z,1015.54
2018-08-16T05:20:41.159Z,1015.56
2018-08-16T05:21:41.190Z,1015.58
2018-08-16T05:23:41.242Z,1015.6
2018-08-16T05:24:41.278Z,1015.56
2018-08-16T05:25:41.300Z,1015.58
2018-08-16T05:26:41.334Z,1015.61
2018-08-16T05:27:41.357Z,1015.55
2018-08-16T05:28:41.385Z,1015.57
2018-08-16T05:29:41.416Z,1015.57
2018-08-16T05:30:41.443Z,1015.58
2018-08-16T05:31:41.570Z,1015.51
2018-08-16T05:32:41.502Z,1015.53
2018-08-16T05:33:41.532Z,1015.51
2018-08-16T05:34:41.560Z,1015.55
2018-08-16T05:35:41.591Z,1015.55
2018-08-16T05:36:41.622Z,1015.49
2018-08-16T05:37:41.649Z,1015.52
2018-08-16T05:39:41.711Z,1015.49
2018-08-16T05:40:41.741Z,1015.54
2018-08-16T05:41:41.770Z,1015.49
2018-08-16T05:42:41.801Z,1015.53
2018-08-16T05:43:41.832Z,1015.51
2018-08-16T05:44:41.862Z,1015.5
2018-08-16T05:45:41.898Z,1015.52
2018-08-16T05:46:41.924Z,1015.57
2018-08-16T05:47:41.954Z,1015.56
2018-08-16T05:48:41.986Z,1015.63
2018-08-16T05:49:42.024Z,1015.65
2018-08-16T05:50:42.088Z,1015.64
2018-08-16T05:51:42.080Z,1015.65
2018-08-16T05:52:42.111Z,1015.68
2018-08-16T05:54:42.173Z,1015.72
2018-08-16T05:55:42.205Z,1015.75
2018-08-16T05:56:42.237Z,1015.76
2018-08-16T05:57:42.268Z,1015.72
2018-08-16T05:58:42.300Z,1015.72
2018-08-16T05:59:42.331Z,1015.73
2018-08-16T06:00:42.364Z,1015.77
2018-08-16T06:01:42.395Z,1015.75
2018-08-16T06:02:42.427Z,1015.72
2018-08-16T06:03:42.460Z,1015.75
2018-08-16T06:04:42.493Z,1015.77
2018-08-16T06:05:42.525Z,1015.76
2018-08-16T06:06:42.556Z,1015.77
2018-08-16T06:07:42.774Z,1015.82
2018-08-16T06:08:42.620Z,1015.83
2018-08-16T06:09:42.655Z,1015.82
2018-08-16T06:10:42.685Z,1015.85
2018-08-16T06:11:42.720Z,1015.77
2018-08-16T06:12:42.751Z,1015.78
2018-08-16T06:13:42.784Z,1015.75
2018-08-16T06:14:42.821Z,1015.81
2018-08-16T06:15:42.853Z,1015.83
2018-08-16T06:16:42.883Z,1015.84
2018-08-16T06:17:42.915Z,1015.85
2018-08-16T06:18:42.949Z,1015.86
2018-08-16T06:19:42.982Z,1015.91
2018-08-16T06:20:43.022Z,1015.92
2018-08-16T06:21:43.048Z,1015.97
2018-08-16T06:22:43.093Z,1015.97
2018-08-16T06:23:43.120Z,1016
2018-08-16T06:24:43.148Z,1016.11
2018-08-16T06:26:43.215Z,1016.23
2018-08-16T06:27:43.254Z,1016.32
2018-08-16T06:28:43.292Z,1016.21
2018-08-16T06:29:43.315Z,1016.28
2018-08-16T06:30:43.349Z,1016.4
2018-08-16T06:31:43.468Z,1016.48
2018-08-16T06:32:43.417Z,1016.43
2018-08-16T06:33:43.452Z,1016.46
2018-08-16T06:34:43.485Z,1016.41
2018-08-16T06:35:43.522Z,1016.42
2018-08-16T06:36:43.558Z,1016.39
2018-08-16T06:37:43.591Z,1016.43
2018-08-16T06:38:43.637Z,1016.4
2018-08-16T06:39:43.657Z,1016.41
2018-08-16T06:40:43.691Z,1016.4
2018-08-16T06:42:43.773Z,1016.41
2018-08-16T06:43:43.796Z,1016.43
2018-08-16T06:44:43.828Z,1016.43
2018-08-16T06:45:43.865Z,1016.38
2018-08-16T06:46:43.899Z,1016.39
2018-08-16T06:47:43.933Z,1016.34
2018-08-16T06:48:43.969Z,1016.3
2018-08-16T06:49:44.004Z,1016.33
2018-08-16T06:50:44.039Z,1016.27
2018-08-16T06:51:44.074Z,1016.2
2018-08-16T06:52:44.209Z,1016.16
2018-08-16T06:53:44.145Z,1016.2
2018-08-16T06:54:44.180Z,1016.14
2018-08-16T06:55:44.215Z,1016.15
2018-08-16T06:56:44.251Z,1016.11
2018-08-16T06:58:44.324Z,1016.04
2018-08-16T06:59:44.357Z,1016.06
2018-08-16T07:00:44.392Z,1016.02
2018-08-16T07:01:44.427Z,1016.03
2018-08-16T07:02:44.462Z,1016.02
2018-08-16T07:03:44.498Z,1015.96
2018-08-16T07:04:44.569Z,1015.91
2018-08-16T07:05:44.570Z,1015.94
2018-08-16T07:06:44.605Z,1015.91
2018-08-16T07:07:44.641Z,1015.91
2018-08-16T07:08:44.679Z,1015.79
2018-08-16T07:09:44.713Z,1015.56
2018-08-16T07:10:44.747Z,1015.49
2018-08-16T07:11:44.782Z,1015.51
2018-08-16T07:12:44.819Z,1015.53
2018-08-16T07:14:44.890Z,1015.56
2018-08-16T07:15:44.928Z,1015.5
2018-08-16T07:16:44.962Z,1015.52
2018-08-16T07:17:45.098Z,1015.52
2018-08-16T07:18:45.095Z,1015.55
2018-08-16T07:19:45.069Z,1015.52
2018-08-16T07:20:45.106Z,1015.56
2018-08-16T07:21:45.151Z,1015.54
2018-08-16T07:22:45.180Z,1015.52
2018-08-16T07:23:45.214Z,1015.54
2018-08-16T07:24:45.261Z,1015.55
2018-08-16T07:25:45.287Z,1015.54
2018-08-16T07:26:45.424Z,1015.55
2018-08-16T07:27:45.361Z,1015.53
2018-08-16T07:29:45.433Z,1015.53
2018-08-16T07:30:45.468Z,1015.51
2018-08-16T07:31:45.506Z,1015.51
2018-08-16T07:32:45.542Z,1015.55
2018-08-16T07:33:45.578Z,1015.61
2018-08-16T07:34:45.614Z,1015.71
2018-08-16T07:35:45.651Z,1015.74
2018-08-16T07:36:45.687Z,1015.74
2018-08-16T07:37:45.723Z,1015.7
2018-08-16T07:38:45.759Z,1015.7
2018-08-16T07:39:45.796Z,1015.69
2018-08-16T07:40:45.833Z,1015.66
2018-08-16T07:41:45.867Z,1015.66
2018-08-16T07:42:45.905Z,1015.7
2018-08-16T07:43:45.942Z,1015.7
2018-08-16T07:44:45.979Z,1015.63
2018-08-16T07:45:46.214Z,1015.68
2018-08-16T07:46:46.050Z,1015.67
2018-08-16T07:47:46.087Z,1015.64
2018-08-16T07:48:46.124Z,1015.63
2018-08-16T07:49:46.158Z,1015.58
2018-08-16T07:50:46.195Z,1015.58
2018-08-16T07:51:46.383Z,1015.53
2018-08-16T07:52:46.268Z,1015.54
2018-08-16T07:53:46.304Z,1015.52
2018-08-16T07:54:46.341Z,1015.52
2018-08-16T07:55:46.376Z,1015.48
2018-08-16T07:56:46.412Z,1015.45
2018-08-16T07:57:46.451Z,1015.47
2018-08-16T07:58:46.486Z,1015.45
2018-08-16T07:59:46.522Z,1015.46
2018-08-16T08:01:46.596Z,1015.45
2018-08-16T08:02:46.633Z,1015.44
2018-08-16T08:03:46.671Z,1015.46
2018-08-16T08:04:46.706Z,1015.45
2018-08-16T08:05:46.746Z,1015.44
2018-08-16T08:06:46.778Z,1015.39
2018-08-16T08:07:46.813Z,1015.48
2018-08-16T08:08:46.907Z,1015.44
2018-08-16T08:09:46.969Z,1015.45
2018-08-16T08:10:46.921Z,1015.49
2018-08-16T08:11:46.959Z,1015.49
2018-08-16T08:12:46.994Z,1015.45
2018-08-16T08:13:47.032Z,1015.46
2018-08-16T08:14:47.067Z,1015.39
2018-08-16T08:15:47.105Z,1015.35
2018-08-16T08:17:47.178Z,1015.31
2018-08-16T08:18:47.214Z,1015.3
2018-08-16T08:19:47.249Z,1015.31
2018-08-16T08:20:47.287Z,1015.34
2018-08-16T08:21:47.323Z,1015.35
2018-08-16T08:22:47.359Z,1015.39
2018-08-16T08:23:47.396Z,1015.42
2018-08-16T08:24:47.432Z,1015.36
2018-08-16T08:25:47.468Z,1015.41
2018-08-16T08:26:47.523Z,1015.46
2018-08-16T08:27:47.540Z,1015.46
2018-08-16T08:28:47.576Z,1015.45
2018-08-16T08:29:47.615Z,1015.47
2018-08-16T08:30:47.648Z,1015.41
2018-08-16T08:31:47.820Z,1015.4
2018-08-16T08:33:47.756Z,1015.34
2018-08-16T08:34:47.792Z,1015.37
2018-08-16T08:35:47.828Z,1015.3
2018-08-16T08:36:47.864Z,1015.34
2018-08-16T08:37:47.899Z,1015.32
2018-08-16T08:38:47.983Z,1015.27
2018-08-16T08:39:47.973Z,1015.25
2018-08-16T08:40:48.007Z,1015.08
2018-08-16T08:41:48.044Z,1014.99
2018-08-16T08:42:48.079Z,1014.97
2018-08-16T08:43:48.114Z,1014.95
2018-08-16T08:44:48.150Z,1014.94
2018-08-16T08:45:48.186Z,1014.93
2018-08-16T08:46:48.223Z,1014.93
2018-08-16T08:47:48.260Z,1014.92
2018-08-16T08:49:48.329Z,1014.85
2018-08-16T08:50:48.365Z,1014.88
2018-08-16T08:51:48.400Z,1014.82
2018-08-16T08:52:48.436Z,1014.79
2018-08-16T08:53:48.471Z,1014.74
2018-08-16T08:54:48.507Z,1014.7
2018-08-16T08:55:48.542Z,1014.72
2018-08-16T08:56:48.578Z,1014.63
2018-08-16T08:57:48.613Z,1014.6
2018-08-16T08:58:48.649Z,1014.59
2018-08-16T08:59:48.684Z,1014.57
2018-08-16T09:00:48.720Z,1014.55
2018-08-16T09:01:48.756Z,1014.56
2018-08-16T09:02:48.791Z,1014.54
2018-08-16T09:04:48.863Z,1014.5
2018-08-16T09:05:48.896Z,1014.48
2018-08-16T09:06:48.941Z,1014.5
2018-08-16T09:07:48.969Z,1014.5
2018-08-16T09:08:49.004Z,1014.47
2018-08-16T09:09:49.038Z,1014.49
2018-08-16T09:10:49.074Z,1014.49
2018-08-16T09:11:49.110Z,1014.51
2018-08-16T09:12:49.144Z,1014.52
2018-08-16T09:13:49.180Z,1014.49
2018-08-16T09:14:49.233Z,1014.49
2018-08-16T09:15:49.251Z,1014.49
2018-08-16T09:16:49.285Z,1014.47
2018-08-16T09:17:49.321Z,1014.46
2018-08-16T09:18:49.358Z,1014.43
2018-08-16T09:19:49.398Z,1014.45
2018-08-16T09:20:49.427Z,1014.46
2018-08-16T09:21:49.464Z,1014.42
2018-08-16T09:22:49.498Z,1014.39
2018-08-16T09:23:49.536Z,1014.36
2018-08-16T09:24:49.567Z,1014.39
2018-08-16T09:25:49.703Z,1014.38
2018-08-16T09:26:49.638Z,1014.37
2018-08-16T09:27:49.671Z,1014.35
2018-08-16T09:28:49.707Z,1014.33
2018-08-16T09:29:49.747Z,1014.37
2018-08-16T09:30:49.778Z,1014.31
2018-08-16T09:31:49.813Z,1014.31
2018-08-16T09:32:49.848Z,1014.28
2018-08-16T09:33:49.883Z,1014.26
2018-08-16T09:34:50.015Z,1014.24
2018-08-16T09:36:49.987Z,1014.26
2018-08-16T09:37:50.022Z,1014.25
2018-08-16T09:38:50.056Z,1014.26
2018-08-16T09:39:50.134Z,1014.27
2018-08-16T09:40:50.129Z,1014.27
2018-08-16T09:41:50.161Z,1014.25
2018-08-16T09:42:50.195Z,1014.23
2018-08-16T09:43:50.230Z,1014.2
2018-08-16T09:44:50.265Z,1014.19
2018-08-16T09:45:50.299Z,1014.19
2018-08-16T09:46:50.333Z,1014.21
2018-08-16T09:47:50.369Z,1014.22
2018-08-16T09:48:50.404Z,1014.15
2018-08-16T09:49:50.440Z,1014.11
2018-08-16T09:50:50.473Z,1014.11
2018-08-16T09:52:50.542Z,1014.05
2018-08-16T09:53:50.577Z,1014.06
2018-08-16T09:54:50.610Z,1014.02
2018-08-16T09:55:50.646Z,1014.01
2018-08-16T09:56:50.680Z,1014.05
2018-08-16T09:57:50.714Z,1014
2018-08-16T09:58:50.749Z,1013.99
2018-08-16T09:59:50.784Z,1013.97
2018-08-16T10:00:50.818Z,1013.95
2018-08-16T10:01:50.854Z,1013.94
2018-08-16T10:02:50.887Z,1013.92
2018-08-16T10:03:50.922Z,1013.86
2018-08-16T10:04:50.955Z,1013.89
2018-08-16T10:05:50.990Z,1013.92
2018-08-16T10:06:51.028Z,1013.89
2018-08-16T10:08:51.092Z,1013.87
2018-08-16T10:09:51.127Z,1013.89
2018-08-16T10:10:51.161Z,1013.87
2018-08-16T10:11:51.194Z,1013.89
2018-08-16T10:12:51.229Z,1013.85
2018-08-16T10:13:51.263Z,1013.86
2018-08-16T10:14:51.297Z,1013.83
2018-08-16T10:15:51.331Z,1013.81
2018-08-16T10:16:51.368Z,1013.78
2018-08-16T10:17:51.399Z,1013.83
2018-08-16T10:18:51.435Z,1013.83
2018-08-16T10:19:51.468Z,1013.81
2018-08-16T10:20:51.560Z,1013.75
2018-08-16T10:21:51.535Z,1013.73
2018-08-16T10:22:51.570Z,1013.75
2018-08-16T10:24:51.637Z,1013.69
2018-08-16T10:25:51.672Z,1013.67
2018-08-16T10:26:51.742Z,1013.64
2018-08-16T10:27:51.742Z,1013.64
2018-08-16T10:28:51.772Z,1013.63
2018-08-16T10:29:51.810Z,1013.62
2018-08-16T10:30:51.837Z,1013.61
2018-08-16T10:31:51.872Z,1013.58
2018-08-16T10:32:51.905Z,1013.62
2018-08-16T10:33:51.940Z,1013.6
2018-08-16T10:34:51.972Z,1013.56
2018-08-16T10:35:52.007Z,1013.6
2018-08-16T10:36:52.041Z,1013.55
2018-08-16T10:37:52.074Z,1013.54
2018-08-16T10:39:52.141Z,1013.61
2018-08-16T10:40:52.174Z,1013.56
2018-08-16T10:41:52.213Z,1013.52
2018-08-16T10:42:52.240Z,1013.53
2018-08-16T10:43:52.274Z,1013.54
2018-08-16T10:44:52.306Z,1013.55
2018-08-16T10:45:52.341Z,1013.56
2018-08-16T10:46:52.374Z,1013.51
2018-08-16T10:47:52.406Z,1013.56
2018-08-16T10:48:52.439Z,1013.53
2018-08-16T10:49:52.472Z,1013.54
2018-08-16T10:50:52.505Z,1013.62
2018-08-16T10:51:52.538Z,1013.62
2018-08-16T10:52:52.571Z,1013.62
2018-08-16T10:53:52.603Z,1013.56
2018-08-16T10:54:52.642Z,1013.58
2018-08-16T10:55:52.667Z,1013.57
2018-08-16T10:56:52.701Z,1013.6
2018-08-16T10:57:52.734Z,1013.61
2018-08-16T10:58:52.764Z,1013.6
2018-08-16T10:59:52.798Z,1013.57
2018-08-16T11:00:52.831Z,1013.56
2018-08-16T11:01:52.864Z,1013.55
2018-08-16T11:02:52.895Z,1013.53
2018-08-16T11:03:52.926Z,1013.51
2018-08-16T11:04:52.959Z,1013.48
2018-08-16T11:05:52.992Z,1013.42
2018-08-16T11:06:53.024Z,1013.43
2018-08-16T11:07:53.057Z,1013.42
2018-08-16T11:08:53.088Z,1013.41
2018-08-16T11:09:53.119Z,1013.38
2018-08-16T11:11:53.184Z,1013.37
2018-08-16T11:12:53.215Z,1013.33
2018-08-16T11:13:53.252Z,1013.29
2018-08-16T11:14:53.279Z,1013.3
2018-08-16T11:15:53.309Z,1013.29
2018-08-16T11:16:53.343Z,1013.31
2018-08-16T11:17:53.379Z,1013.28
2018-08-16T11:18:53.421Z,1013.31
2018-08-16T11:19:53.438Z,1013.29
2018-08-16T11:20:53.469Z,1013.26
2018-08-16T11:21:53.501Z,1013.21
2018-08-16T11:22:53.534Z,1013.2
2018-08-16T11:23:53.564Z,1013.2
2018-08-16T11:24:53.595Z,1013.14
2018-08-16T11:25:53.628Z,1013.11
2018-08-16T11:27:53.690Z,1013.16
2018-08-16T11:28:53.720Z,1013.13
2018-08-16T11:29:53.757Z,1013.15
2018-08-16T11:30:53.783Z,1013.11
2018-08-16T11:31:53.814Z,1013.11
2018-08-16T11:32:53.844Z,1013.05
2018-08-16T11:33:53.877Z,1012.97
2018-08-16T11:34:53.927Z,1012.96
2018-08-16T11:35:53.938Z,1012.97
2018-08-16T11:36:53.969Z,1012.96
2018-08-16T11:37:54.032Z,1012.94
2018-08-16T11:38:54.032Z,1012.92
2018-08-16T11:39:54.061Z,1012.92
2018-08-16T11:40:54.093Z,1012.92
2018-08-16T11:41:54.124Z,1012.87
2018-08-16T11:43:54.185Z,1012.86
2018-08-16T11:44:54.215Z,1012.89
2018-08-16T11:45:54.247Z,1012.78
2018-08-16T11:46:54.277Z,1012.81
2018-08-16T11:47:54.306Z,1012.82
2018-08-16T11:48:54.339Z,1012.79
2018-08-16T11:49:54.368Z,1012.77
2018-08-16T11:50:54.400Z,1012.85
2018-08-16T11:51:54.434Z,1012.79
2018-08-16T11:52:54.461Z,1012.77
2018-08-16T11:53:54.490Z,1012.78
2018-08-16T11:54:54.525Z,1012.76
2018-08-16T11:55:54.552Z,1012.74
2018-08-16T11:56:54.582Z,1012.7
2018-08-16T11:57:54.611Z,1012.71
2018-08-16T11:59:54.673Z,1012.74
2018-08-16T12:00:54.704Z,1012.78
2018-08-16T12:01:54.733Z,1012.81
2018-08-16T12:02:54.764Z,1012.73
2018-08-16T12:03:54.795Z,1012.71
2018-08-16T12:04:54.824Z,1012.67
2018-08-16T12:05:54.852Z,1012.71
2018-08-16T12:06:54.885Z,1012.69
2018-08-16T12:07:54.914Z,1012.69
2018-08-16T12:08:54.944Z,1012.65
2018-08-16T12:09:54.974Z,1012.64
2018-08-16T12:10:55.004Z,1012.6
2018-08-16T12:11:55.035Z,1012.61
2018-08-16T12:12:55.065Z,1012.6
2018-08-16T12:14:55.182Z,1012.55
2018-08-16T12:15:55.155Z,1012.56
2018-08-16T12:16:55.185Z,1012.57
2018-08-16T12:17:55.215Z,1012.55
2018-08-16T12:18:55.245Z,1012.48
2018-08-16T12:19:55.274Z,1012.49
2018-08-16T12:20:55.308Z,1012.53
2018-08-16T12:21:55.335Z,1012.57
2018-08-16T12:22:55.364Z,1012.54
2018-08-16T12:23:55.395Z,1012.54
2018-08-16T12:24:55.424Z,1012.53
2018-08-16T12:25:55.455Z,1012.48
2018-08-16T12:26:55.483Z,1012.47
2018-08-16T12:27:55.513Z,1012.46
2018-08-16T12:28:55.568Z,1012.47
2018-08-16T12:29:55.574Z,1012.43
2018-08-16T12:30:55.604Z,1012.37
2018-08-16T12:31:55.634Z,1012.4
2018-08-16T12:32:55.662Z,1012.39
2018-08-16T12:33:55.693Z,1012.39
2018-08-16T12:34:55.894Z,1012.37
2018-08-16T12:35:55.753Z,1012.38
2018-08-16T12:36:55.783Z,1012.38
2018-08-16T12:37:55.813Z,1012.35
2018-08-16T12:38:55.844Z,1012.33
2018-08-16T12:39:55.874Z,1012.34
2018-08-16T12:40:55.935Z,1012.32
2018-08-16T12:41:55.933Z,1012.31
2018-08-16T12:42:55.963Z,1012.31
2018-08-16T12:43:55.993Z,1012.35
2018-08-16T12:44:56.022Z,1012.38
2018-08-16T12:46:56.082Z,1012.33
2018-08-16T12:47:56.112Z,1012.32
2018-08-16T12:48:56.143Z,1012.26
2018-08-16T12:49:56.172Z,1012.28